Time;durP1;ratioP1;P1;durP2;ratioP2;P2;SDS_P1;SDS_P2;PMS_P1;PMS_P2;Temp;Humidity;BMP_temperature;BMP_pressure;BME280_temperature;BME280_humidity;BME280_pressure;Samples;Min_cycle;Max_cycle;Signal;HPM_P1;HPM_P2
2022/05/29 00:00:10;;;;;;;7.30;1.77;;;10.40;99.90;;;;;;4995100;28;20391;-74
2022/05/29 00:02:36;;;;;;;8.18;1.83;;;10.20;99.90;;;;;;4994919;28;20045;-75
2022/05/29 00:05:02;;;;;;;5.40;1.45;;;10.30;99.90;;;;;;4993983;28;20054;-74
2022/05/29 00:07:27;;;;;;;6.88;1.50;;;10.20;99.90;;;;;;4995049;28;20046;-74
2022/05/29 00:09:53;;;;;;;6.95;1.45;;;10.20;99.90;;;;;;4995444;28;20085;-74
2022/05/29 00:12:21;;;;;;;7.03;1.40;;;10.10;99.90;;;;;;4994809;28;20125;-74
2022/05/29 00:14:48;;;;;;;7.70;1.50;;;10.30;99.90;;;;;;4994449;28;20077;-74
2022/05/29 00:17:15;;;;;;;7.32;1.52;;;10.20;99.90;;;;;;4993827;28;20065;-74
2022/05/29 00:19:41;;;;;;;11.73;1.65;;;10.60;99.90;;;;;;4993501;28;20058;-73
2022/05/29 00:22:10;;;;;;;8.55;1.77;;;10.10;99.90;;;;;;4994584;28;20046;-74
2022/05/29 00:24:36;;;;;;;6.80;1.30;;;10.20;99.90;;;;;;4993670;28;20082;-74
2022/05/29 00:27:02;;;;;;;8.45;1.50;;;10.10;99.90;;;;;;4977546;28;20089;-74
2022/05/29 00:29:28;;;;;;;8.60;1.45;;;9.90;99.90;;;;;;4993424;28;20077;-73
2022/05/29 00:31:54;;;;;;;5.57;1.70;;;9.90;99.90;;;;;;4994594;28;20046;-74
2022/05/29 00:34:20;;;;;;;5.22;1.20;;;10.10;99.90;;;;;;4993576;28;20088;-72
2022/05/29 00:36:46;;;;;;;5.22;1.50;;;10.00;99.90;;;;;;4993654;28;20050;-73
2022/05/29 00:39:14;;;;;;;9.23;1.48;;;9.80;99.90;;;;;;4994318;28;20104;-74
2022/05/29 00:41:40;;;;;;;9.55;1.70;;;9.80;99.90;;;;;;4994698;28;20057;-74
2022/05/29 00:44:14;;;;;;;6.90;1.40;;;10.10;99.90;;;;;;4994315;28;20049;-73
2022/05/29 00:46:49;;;;;;;7.57;1.40;;;10.10;99.90;;;;;;4977515;28;20094;-74
2022/05/29 00:49:17;;;;;;;7.30;1.27;;;10.10;99.90;;;;;;4993465;28;20505;-72
2022/05/29 00:51:49;;;;;;;6.80;1.55;;;10.10;99.90;;;;;;4994345;28;20108;-73
2022/05/29 00:54:16;;;;;;;6.13;1.48;;;9.90;99.90;;;;;;4992900;28;20556;-72
2022/05/29 00:56:43;;;;;;;5.80;1.30;;;10.10;99.90;;;;;;4994802;28;20065;-73
2022/05/29 00:59:18;;;;;;;8.30;1.55;;;10.10;99.90;;;;;;4994113;28;20368;-73
2022/05/29 01:01:43;;;;;;;4.20;1.13;;;10.10;99.90;;;;;;4994576;28;20046;-73
2022/05/29 01:04:10;;;;;;;6.93;1.45;;;10.30;99.90;;;;;;4994158;28;20065;-73
2022/05/29 01:06:36;;;;;;;9.15;1.50;;;10.10;99.90;;;;;;4992783;28;20108;-73
2022/05/29 01:09:05;;;;;;;5.55;1.20;;;10.10;99.90;;;;;;4994136;28;20129;-73
2022/05/29 01:11:37;;;;;;;5.32;1.30;;;10.10;99.90;;;;;;4994042;28;20054;-73
2022/05/29 01:14:45;;;;;;;5.47;1.48;;;10.00;99.90;;;;;;4994111;28;20038;-73
2022/05/29 01:17:36;;;;;;;6.22;1.33;;;10.00;99.90;;;;;;4993113;28;20054;-73
2022/05/29 01:20:08;;;;;;;9.23;1.30;;;10.00;99.90;;;;;;4993834;28;20589;-73
2022/05/29 01:22:56;;;;;;;7.07;1.48;;;10.00;99.90;;;;;;4993316;28;20096;-72
2022/05/29 01:25:36;;;;;;;5.97;1.20;;;10.00;99.90;;;;;;4995057;28;20348;-73
2022/05/29 01:28:43;;;;;;;6.45;1.40;;;10.00;99.90;;;;;;4994802;28;20149;-74
2022/05/29 01:31:27;;;;;;;5.63;1.30;;;10.00;99.90;;;;;;4993791;28;20498;-73
2022/05/29 01:34:00;;;;;;;4.65;1.30;;;10.00;99.90;;;;;;4993925;28;20039;-73
2022/05/29 01:36:42;;;;;;;7.15;1.50;;;10.00;99.90;;;;;;4993275;28;20069;-73
2022/05/29 01:39:43;;;;;;;9.32;2.53;;;10.00;99.90;;;;;;4994230;28;20125;-73
2022/05/29 01:42:34;;;;;;;4.85;1.30;;;10.00;99.90;;;;;;4988865;28;20050;-74
2022/05/29 01:45:22;;;;;;;8.45;2.13;;;10.00;99.90;;;;;;4990760;28;20057;-73
2022/05/29 01:48:01;;;;;;;7.35;1.40;;;10.00;99.90;;;;;;4993828;28;20057;-73
2022/05/29 01:50:40;;;;;;;9.07;1.98;;;10.00;99.90;;;;;;4992900;28;20560;-73
2022/05/29 01:53:16;;;;;;;9.25;1.80;;;10.00;99.90;;;;;;4994612;28;20042;-73
2022/05/29 01:55:53;;;;;;;6.28;1.30;;;10.00;99.90;;;;;;4998042;28;20093;-73
2022/05/29 01:58:29;;;;;;;6.00;1.58;;;10.10;99.90;;;;;;4997763;28;20047;-72
2022/05/29 02:00:59;;;;;;;8.85;1.77;;;10.10;99.90;;;;;;4996441;28;20077;-72
2022/05/29 02:03:32;;;;;;;5.63;1.20;;;10.10;99.90;;;;;;4997006;28;20073;-71
2022/05/29 02:06:00;;;;;;;;;;;10.20;99.90;;;;;;4998572;28;20073;-73
2022/05/29 02:08:34;;;;;;;8.48;1.50;;;10.10;99.90;;;;;;4997225;28;20012;-74
2022/05/29 02:11:06;;;;;;;6.63;1.92;;;10.30;99.90;;;;;;4995725;28;20498;-73
2022/05/29 02:13:35;;;;;;;13.00;1.70;;;10.10;99.90;;;;;;4996292;28;20054;-74
2022/05/29 02:16:18;;;;;;;7.32;1.50;;;10.20;99.90;;;;;;4996103;28;20058;-74
2022/05/29 02:18:52;;;;;;;6.47;1.63;;;10.20;99.90;;;;;;4996198;28;20045;-73
2022/05/29 02:21:28;;;;;;;6.65;2.05;;;10.30;99.90;;;;;;4996412;28;20093;-73
2022/05/29 02:23:58;;;;;;;7.32;1.80;;;10.40;99.90;;;;;;4996582;28;20043;-75
2022/05/29 02:26:29;;;;;;;9.40;2.15;;;10.50;99.90;;;;;;4996926;28;20053;-74
2022/05/29 02:28:58;;;;;;;7.82;2.03;;;10.90;99.90;;;;;;4997485;28;20054;-77
2022/05/29 02:31:51;;;;;;;10.07;1.65;;;10.20;99.90;;;;;;4997629;28;20046;-74
2022/05/29 02:34:32;;;;;;;9.05;3.05;;;10.20;99.90;;;;;;4996796;28;20057;-75
2022/05/29 02:37:03;;;;;;;9.52;1.83;;;10.20;99.90;;;;;;4997014;28;20460;-74
2022/05/29 02:39:39;;;;;;;7.30;2.08;;;10.40;99.90;;;;;;4996842;28;20058;-74
2022/05/29 02:42:23;;;;;;;7.75;2.33;;;10.30;99.90;;;;;;4997344;28;20431;-74
2022/05/29 02:45:03;;;;;;;9.00;2.20;;;10.30;99.90;;;;;;4997123;28;20188;-74
2022/05/29 02:47:51;;;;;;;10.10;2.00;;;10.10;99.90;;;;;;4997150;28;20057;-73
2022/05/29 02:50:22;;;;;;;12.68;2.00;;;10.10;99.90;;;;;;4996383;28;20054;-74
2022/05/29 02:52:53;;;;;;;9.38;1.50;;;10.10;99.90;;;;;;4996487;28;20389;-74
2022/05/29 02:55:22;;;;;;;8.25;1.85;;;10.10;99.90;;;;;;4996373;28;20047;-74
2022/05/29 02:57:56;;;;;;;7.95;2.40;;;10.10;99.90;;;;;;4979493;28;20445;-74
2022/05/29 03:00:23;;;;;;;7.72;1.92;;;10.00;99.90;;;;;;4996934;28;20050;-72
2022/05/29 03:03:09;;;;;;;7.82;1.73;;;10.00;99.90;;;;;;4996474;28;20046;-73
2022/05/29 03:05:46;;;;;;;10.38;1.77;;;10.00;99.90;;;;;;4994879;28;20065;-73
2022/05/29 03:08:19;;;;;;;8.00;2.30;;;10.30;99.90;;;;;;4996224;28;20086;-72
2022/05/29 03:11:08;;;;;;;6.85;1.48;;;9.80;99.90;;;;;;4996711;28;20143;-73
2022/05/29 03:14:04;;;;;;;7.38;1.80;;;10.00;99.90;;;;;;4995459;28;20050;-74
2022/05/29 03:17:02;;;;;;;10.88;1.60;;;10.00;99.90;;;;;;4995361;28;20046;-74
2022/05/29 03:19:49;;;;;;;9.32;1.50;;;10.00;99.90;;;;;;4995058;28;20061;-74
2022/05/29 03:22:46;;;;;;;7.13;1.52;;;9.90;99.90;;;;;;4995900;28;20038;-72
2022/05/29 03:25:20;;;;;;;7.65;1.80;;;9.90;99.90;;;;;;4969129;28;20062;-73
2022/05/29 03:27:48;;;;;;;10.70;2.25;;;9.90;99.90;;;;;;4995693;28;20052;-72
2022/05/29 03:30:23;;;;;;;9.88;2.05;;;9.90;99.90;;;;;;4995779;28;20104;-72
2022/05/29 03:32:54;;;;;;;9.15;1.85;;;9.90;99.90;;;;;;4995736;28;20078;-72
2022/05/29 03:35:25;;;;;;;5.45;1.63;;;10.00;99.90;;;;;;4996549;28;20042;-72
2022/05/29 03:37:51;;;;;;;7.72;1.70;;;10.20;99.90;;;;;;4995599;28;20038;-72
2022/05/29 03:40:18;;;;;;;8.63;1.63;;;10.20;99.90;;;;;;4995768;28;20058;-72
2022/05/29 03:42:44;;;;;;;5.97;1.40;;;10.00;99.90;;;;;;4995923;28;20074;-72
2022/05/29 03:45:11;;;;;;;10.25;1.60;;;9.90;99.90;;;;;;4995734;28;20055;-73
2022/05/29 03:47:38;;;;;;;5.32;1.55;;;9.90;99.90;;;;;;4994216;28;20112;-72
2022/05/29 03:50:11;;;;;;;10.25;2.05;;;9.90;99.90;;;;;;4995361;28;20082;-73
2022/05/29 03:52:36;;;;;;;5.45;1.20;;;10.00;99.90;;;;;;4995959;28;20046;-73
2022/05/29 03:55:03;;;;;;;5.65;1.30;;;10.10;99.90;;;;;;4995279;28;20076;-71
2022/05/29 03:57:29;;;;;;;11.90;1.77;;;9.90;99.90;;;;;;4995090;28;20054;-72
2022/05/29 03:59:54;;;;;;;5.45;1.30;;;10.00;99.90;;;;;;4995150;28;20043;-73
2022/05/29 04:02:20;;;;;;;6.85;1.00;;;10.00;99.90;;;;;;4995039;28;20047;-73
2022/05/29 04:04:46;;;;;;;3.13;0.90;;;9.90;99.90;;;;;;4994790;28;20406;-73
2022/05/29 04:07:12;;;;;;;5.05;1.27;;;9.90;99.90;;;;;;4993762;28;20054;-72
2022/05/29 04:12:22;;;;;;;5.50;0.90;;;9.90;99.90;;;;;;4980244;28;20482;-72
2022/05/29 04:14:48;;;;;;;5.38;0.88;;;10.10;99.90;;;;;;4993775;28;20050;-72
2022/05/29 04:17:17;;;;;;;6.68;1.48;;;10.00;99.90;;;;;;4994134;28;20049;-71
2022/05/29 04:19:46;;;;;;;5.53;1.17;;;10.00;99.90;;;;;;4994833;28;20038;-72
2022/05/29 04:22:18;;;;;;;5.55;0.93;;;10.00;99.90;;;;;;4994744;28;20054;-72
2022/05/29 04:24:43;;;;;;;6.32;1.00;;;10.00;99.90;;;;;;4993798;28;20049;-72
2022/05/29 04:27:15;;;;;;;4.95;0.90;;;10.00;99.90;;;;;;4994779;28;20486;-72
2022/05/29 04:29:41;;;;;;;6.93;1.13;;;10.10;99.90;;;;;;4995213;28;20070;-72
2022/05/29 04:34:56;;;;;;;7.05;1.00;;;10.10;99.90;;;;;;4994205;28;20446;-72
2022/05/29 04:37:22;;;;;;;6.60;0.95;;;10.30;99.90;;;;;;4994316;28;20050;-72
2022/05/29 04:39:48;;;;;;;5.60;1.10;;;10.10;99.90;;;;;;4994516;28;20058;-72
2022/05/29 04:42:14;;;;;;;5.88;0.98;;;10.10;99.90;;;;;;4993374;28;20125;-73
2022/05/29 04:44:39;;;;;;;9.32;1.50;;;10.10;99.90;;;;;;4995230;28;20100;-72
2022/05/29 04:47:05;;;;;;;5.60;1.20;;;10.40;99.90;;;;;;4993778;28;20510;-73
2022/05/29 04:49:31;;;;;;;7.82;1.42;;;10.10;99.90;;;;;;4994417;28;20046;-72
2022/05/29 04:51:57;;;;;;;6.13;1.13;;;10.30;99.90;;;;;;4993362;28;20487;-72
2022/05/29 04:54:23;;;;;;;6.18;1.25;;;10.30;99.90;;;;;;4993933;28;20047;-72
2022/05/29 04:56:49;;;;;;;4.00;0.88;;;10.20;99.90;;;;;;4994309;28;20042;-74
2022/05/29 04:59:15;;;;;;;6.43;1.00;;;10.20;99.90;;;;;;4977058;28;20046;-71
2022/05/29 05:01:42;;;;;;;6.45;1.00;;;10.20;99.90;;;;;;4994251;28;20054;-72
2022/05/29 05:04:07;;;;;;;4.25;1.02;;;10.40;99.90;;;;;;4994183;28;20129;-75
2022/05/29 05:06:33;;;;;;;13.82;2.50;;;10.20;99.90;;;;;;4993269;28;20129;-72
2022/05/29 05:09:00;;;;;;;8.68;1.58;;;10.60;99.90;;;;;;4994231;28;20520;-72
2022/05/29 05:11:26;;;;;;;6.10;1.38;;;10.30;99.90;;;;;;4994388;28;20046;-72
2022/05/29 05:13:52;;;;;;;10.13;1.40;;;10.20;99.90;;;;;;4994456;28;20386;-73
2022/05/29 05:16:18;;;;;;;8.50;1.17;;;10.50;99.90;;;;;;4994159;28;20125;-73
2022/05/29 05:18:44;;;;;;;4.20;1.40;;;10.30;99.90;;;;;;4994638;28;20054;-72
2022/05/29 05:21:10;;;;;;;10.13;1.10;;;10.20;99.90;;;;;;4994088;28;20046;-72
2022/05/29 05:23:36;;;;;;;11.07;1.35;;;10.30;99.90;;;;;;4993987;28;20479;-73
2022/05/29 05:26:07;;;;;;;8.02;1.95;;;10.00;99.90;;;;;;4993080;28;20053;-74
2022/05/29 05:28:32;;;;;;;9.60;1.33;;;10.80;99.90;;;;;;4995652;28;20054;-74
2022/05/29 05:30:58;;;;;;;6.45;1.30;;;10.00;99.90;;;;;;4997212;28;20049;-73
2022/05/29 05:33:25;;;;;;;9.52;1.88;;;10.20;99.90;;;;;;4996769;28;20431;-72
2022/05/29 05:35:50;;;;;;;10.48;1.83;;;9.90;99.90;;;;;;4997851;28;20104;-73
2022/05/29 05:38:16;;;;;;;7.97;1.80;;;10.00;99.90;;;;;;4981260;28;20053;-72
2022/05/29 05:40:42;;;;;;;5.70;1.75;;;10.10;99.90;;;;;;4997871;28;20101;-73
2022/05/29 05:43:08;;;;;;;5.88;1.20;;;10.00;99.90;;;;;;4997649;28;20061;-72
2022/05/29 05:45:34;;;;;;;7.00;1.40;;;10.00;99.90;;;;;;4997769;28;20073;-72
2022/05/29 05:48:00;;;;;;;8.80;1.55;;;10.10;99.90;;;;;;4996429;28;20050;-72
2022/05/29 05:50:25;;;;;;;7.82;1.05;;;10.00;99.90;;;;;;4996471;28;20042;-72
2022/05/29 05:52:51;;;;;;;8.98;1.23;;;10.20;99.90;;;;;;4997603;28;20038;-72
2022/05/29 05:55:17;;;;;;;8.13;1.42;;;10.70;99.90;;;;;;4996817;28;20054;-72
2022/05/29 05:57:43;;;;;;;5.85;1.17;;;10.20;99.90;;;;;;4997738;28;20109;-72
2022/05/29 06:00:13;;;;;;;8.55;1.48;;;10.40;99.90;;;;;;4996279;28;20133;-72
2022/05/29 06:02:42;;;;;;;5.35;0.98;;;10.30;99.90;;;;;;4997862;28;20045;-72
2022/05/29 06:05:12;;;;;;;6.65;1.02;;;10.50;99.90;;;;;;4997089;28;20494;-72
2022/05/29 06:07:38;;;;;;;5.47;0.82;;;10.30;99.90;;;;;;4997410;28;20054;-72
2022/05/29 06:10:05;;;;;;;6.80;1.13;;;10.80;99.90;;;;;;4996336;28;20465;-71
2022/05/29 06:12:31;;;;;;;7.70;1.27;;;10.40;99.90;;;;;;4997186;28;20109;-73
2022/05/29 06:14:58;;;;;;;6.57;1.00;;;10.50;99.90;;;;;;4996889;28;20454;-73
2022/05/29 06:17:23;;;;;;;6.57;1.17;;;10.40;99.90;;;;;;4997167;28;20053;-73
2022/05/29 06:19:49;;;;;;;8.25;1.17;;;10.80;99.90;;;;;;4979956;28;20042;-73
2022/05/29 06:22:15;;;;;;;8.32;1.10;;;10.30;99.90;;;;;;4995847;28;20050;-73
2022/05/29 06:24:41;;;;;;;3.03;0.82;;;10.60;99.90;;;;;;4997012;28;20042;-71
2022/05/29 06:27:07;;;;;;;5.43;1.50;;;10.30;99.90;;;;;;4979855;28;20112;-72
2022/05/29 06:29:33;;;;;;;9.10;1.40;;;10.40;99.90;;;;;;4979548;28;20399;-72
2022/05/29 06:32:04;;;;;;;5.50;0.90;;;10.40;99.90;;;;;;4997216;28;20113;-72
2022/05/29 06:34:33;;;;;;;6.60;1.15;;;10.40;99.90;;;;;;4996126;28;20050;-71
2022/05/29 06:37:03;;;;;;;8.63;1.10;;;10.50;99.90;;;;;;4996588;28;20053;-72
2022/05/29 06:39:29;;;;;;;4.82;1.02;;;10.40;99.90;;;;;;4995933;28;20125;-71
2022/05/29 06:41:55;;;;;;;7.82;1.25;;;10.30;99.90;;;;;;4997209;28;20479;-71
2022/05/29 06:44:20;;;;;;;4.35;0.98;;;10.40;99.90;;;;;;4979439;28;20050;-72
2022/05/29 06:46:46;;;;;;;6.22;0.85;;;10.60;99.90;;;;;;4997087;28;20046;-72
2022/05/29 06:49:12;;;;;;;5.15;0.75;;;10.40;99.90;;;;;;4996544;28;20046;-71
2022/05/29 06:51:38;;;;;;;4.50;0.80;;;10.40;99.90;;;;;;4996492;28;20046;-69
2022/05/29 06:54:05;;;;;;;4.75;0.70;;;10.30;99.90;;;;;;4995287;28;20046;-71
2022/05/29 06:56:32;;;;;;;6.80;0.98;;;10.30;99.90;;;;;;4996392;28;20053;-72
2022/05/29 06:58:59;;;;;;;5.22;0.90;;;10.20;99.90;;;;;;4996877;28;20092;-71
2022/05/29 07:07:01;;;;;;;6.35;1.35;;;10.50;99.90;;;;;;4995235;28;20136;-73
2022/05/29 07:09:28;;;;;;;5.47;0.70;;;10.50;99.90;;;;;;4995019;28;20050;-71
2022/05/29 07:12:17;;;;;;;4.70;0.90;;;10.20;99.90;;;;;;4979665;28;20455;-71
2022/05/29 07:14:46;;;;;;;6.82;0.90;;;10.20;99.90;;;;;;4995413;28;20112;-71
2022/05/29 07:17:12;;;;;;;3.38;1.02;;;10.20;99.90;;;;;;4995997;28;20058;-71
2022/05/29 07:19:40;;;;;;;5.85;0.80;;;10.10;99.90;;;;;;4995994;28;20049;-71
2022/05/29 07:22:06;;;;;;;6.85;0.93;;;10.20;99.90;;;;;;4994442;28;20498;-70
2022/05/29 07:24:34;;;;;;;8.38;1.27;;;10.70;99.90;;;;;;4995886;28;20085;-71
2022/05/29 07:27:00;;;;;;;8.60;0.90;;;10.20;99.90;;;;;;4996083;28;20078;-70
2022/05/29 07:29:27;;;;;;;8.80;0.95;;;10.40;99.90;;;;;;4996334;28;20046;-73
2022/05/29 07:31:54;;;;;;;7.80;1.17;;;10.30;99.90;;;;;;4995887;28;20046;-72
2022/05/29 07:34:20;;;;;;;4.45;0.93;;;10.20;99.90;;;;;;4995856;28;20054;-72
2022/05/29 07:36:49;;;;;;;6.55;0.90;;;10.30;99.90;;;;;;4996398;28;20046;-72
2022/05/29 07:39:15;;;;;;;4.57;0.80;;;10.30;99.90;;;;;;4994830;28;20191;-71
2022/05/29 07:44:25;;;;;;;5.68;0.90;;;10.50;99.90;;;;;;4996171;28;20094;-71
2022/05/29 07:46:51;;;;;;;6.00;1.02;;;10.30;99.90;;;;;;4996336;28;20077;-70
2022/05/29 07:49:16;;;;;;;8.40;1.73;;;10.30;99.90;;;;;;4995523;28;20058;-75
2022/05/29 07:51:42;;;;;;;7.70;1.02;;;10.40;99.90;;;;;;4995457;28;20050;-77
2022/05/29 07:54:08;;;;;;;5.35;0.90;;;10.80;99.90;;;;;;4978572;28;20185;-73
2022/05/29 07:56:34;;;;;;;8.35;0.85;;;10.40;99.90;;;;;;4995455;28;20112;-71
2022/05/29 07:58:59;;;;;;;6.93;0.80;;;10.90;99.90;;;;;;4995409;28;20383;-72
2022/05/29 08:01:25;;;;;;;4.82;0.90;;;10.50;99.90;;;;;;4994363;28;20046;-71
2022/05/29 08:03:51;;;;;;;7.25;1.10;;;10.20;99.90;;;;;;4994845;28;20046;-71
2022/05/29 08:06:16;;;;;;;5.47;0.82;;;10.50;99.90;;;;;;4995766;28;20458;-71
2022/05/29 08:08:43;;;;;;;9.52;1.00;;;10.30;99.90;;;;;;4995959;28;20126;-71
2022/05/29 08:11:09;;;;;;;4.70;0.80;;;10.30;99.90;;;;;;4994354;28;20050;-76
2022/05/29 08:13:38;;;;;;;3.80;0.70;;;10.40;99.90;;;;;;4995002;28;20052;-72
2022/05/29 08:16:05;;;;;;;6.10;0.63;;;10.40;99.90;;;;;;4994884;28;20046;-72
2022/05/29 08:18:31;;;;;;;3.30;0.52;;;10.40;99.90;;;;;;4994038;28;20372;-73
2022/05/29 08:20:56;;;;;;;6.05;0.60;;;10.50;99.90;;;;;;4995052;28;20057;-71
2022/05/29 08:23:23;;;;;;;2.85;0.70;;;10.60;99.90;;;;;;4977474;28;20046;-71
2022/05/29 08:31:19;;;;;;;6.35;0.82;;;10.80;99.90;;;;;;4993412;28;20060;-72
2022/05/29 08:33:47;;;;;;;2.75;1.00;;;10.60;99.90;;;;;;4993009;28;20120;-73
2022/05/29 08:36:15;;;;;;;6.65;0.85;;;10.60;99.90;;;;;;4994275;28;20053;-74
2022/05/29 08:38:44;;;;;;;3.03;0.70;;;10.60;99.90;;;;;;4992885;28;20506;-73
2022/05/29 08:41:18;;;;;;;4.75;0.93;;;10.50;99.90;;;;;;4992809;28;20133;-73
2022/05/29 08:43:59;;;;;;;7.03;1.02;;;10.50;99.90;;;;;;4994438;28;20054;-71
2022/05/29 08:46:34;;;;;;;7.35;1.20;;;10.40;99.90;;;;;;4994142;28;20105;-73
2022/05/29 08:49:00;;;;;;;4.80;0.88;;;10.40;99.90;;;;;;4994609;28;20046;-73
2022/05/29 08:52:07;;;;;;;6.53;0.80;;;10.30;99.90;;;;;;4992983;28;20046;-73
2022/05/29 08:54:57;;;;;;;8.02;0.90;;;10.30;99.90;;;;;;4971778;28;20058;-74
2022/05/29 08:57:32;;;;;;;4.28;0.70;;;10.30;99.90;;;;;;4992827;28;20112;-73
2022/05/29 09:00:25;;;;;;;4.03;0.90;;;10.40;99.90;;;;;;4994242;28;20056;-73
2022/05/29 09:03:11;;;;;;;5.78;1.23;;;10.40;99.90;;;;;;4977188;28;20084;-72
2022/05/29 09:05:42;;;;;;;6.13;1.00;;;10.50;99.90;;;;;;4992298;28;20061;-74
2022/05/29 09:08:30;;;;;;;3.45;0.60;;;10.60;99.90;;;;;;4993856;28;20104;-73
2022/05/29 09:11:16;;;;;;;6.30;1.00;;;10.60;99.90;;;;;;4993457;28;20064;-73
2022/05/29 09:13:56;;;;;;;3.15;0.63;;;10.80;99.90;;;;;;4993576;28;20054;-72
2022/05/29 09:16:25;;;;;;;3.85;0.90;;;10.80;99.90;;;;;;4992539;28;20173;-74
2022/05/29 09:19:10;;;;;;;5.75;0.80;;;10.90;99.90;;;;;;4993573;28;20046;-76
2022/05/29 09:21:54;;;;;;;5.65;0.60;;;11.10;99.90;;;;;;4992604;28;20109;-72
2022/05/29 09:24:40;;;;;;;4.07;0.70;;;11.10;99.90;;;;;;4993274;28;20045;-73
2022/05/29 09:27:09;;;;;;;4.03;0.82;;;11.10;99.90;;;;;;4993405;28;20053;-72
2022/05/29 09:29:36;;;;;;;5.57;0.50;;;11.20;99.90;;;;;;4992082;28;20054;-75
2022/05/29 09:32:08;;;;;;;5.90;0.73;;;11.20;99.90;;;;;;4992749;28;20051;-74
2022/05/29 09:34:36;;;;;;;5.65;0.73;;;11.20;99.90;;;;;;4976448;28;20522;-74
2022/05/29 09:37:37;;;;;;;3.38;0.80;;;11.20;99.90;;;;;;4993057;28;20054;-74
2022/05/29 09:40:07;;;;;;;4.00;0.52;;;11.10;99.90;;;;;;4974719;28;20507;-72
2022/05/29 09:42:42;;;;;;;5.82;0.60;;;11.10;99.90;;;;;;4993102;28;20050;-75
2022/05/29 09:45:15;;;;;;;3.90;0.60;;;11.10;99.90;;;;;;4993192;28;20133;-74
2022/05/29 09:50:39;;;;;;;3.92;0.50;;;11.20;99.90;;;;;;4993445;28;20340;-74
2022/05/29 09:53:11;;;;;;;3.97;0.60;;;11.20;99.90;;;;;;4976343;28;20386;-73
2022/05/29 09:55:37;;;;;;;3.60;0.50;;;11.20;99.90;;;;;;4993126;28;20065;-81
2022/05/29 09:58:13;;;;;;;4.35;0.57;;;11.20;99.90;;;;;;4992782;28;20050;-76
2022/05/29 10:01:01;;;;;;;6.25;0.60;;;11.20;99.90;;;;;;4991967;28;20129;-75
2022/05/29 10:03:42;;;;;;;5.72;0.82;;;11.10;99.90;;;;;;4992983;28;20042;-76
2022/05/29 10:06:22;;;;;;;3.47;0.60;;;11.40;99.90;;;;;;4991191;28;20049;-72
2022/05/29 10:08:50;;;;;;;4.53;0.70;;;11.10;99.90;;;;;;4993162;28;20121;-72
2022/05/29 10:11:31;;;;;;;5.57;0.75;;;11.10;99.90;;;;;;4991268;28;20065;-71
2022/05/29 10:14:00;;;;;;;4.47;0.70;;;11.30;99.90;;;;;;4976978;28;20049;-72
2022/05/29 10:16:39;;;;;;;4.85;0.50;;;11.20;99.90;;;;;;4995781;28;20525;-74
2022/05/29 10:19:10;;;;;;;3.53;0.65;;;11.40;99.90;;;;;;4996222;28;20046;-72
2022/05/29 10:21:45;;;;;;;3.40;0.75;;;11.50;99.90;;;;;;4996318;28;20053;-73
2022/05/29 10:24:26;;;;;;;4.10;0.60;;;11.50;99.90;;;;;;4996196;28;20044;-74
2022/05/29 10:26:58;;;;;;;2.60;0.60;;;11.50;99.90;;;;;;4997526;28;20050;-73
2022/05/29 10:29:28;;;;;;;3.30;0.60;;;11.70;99.90;;;;;;4996134;28;20082;-75
2022/05/29 10:31:54;;;;;;;4.63;0.63;;;11.70;99.90;;;;;;4995675;28;20085;-73
2022/05/29 10:34:32;;;;;;;4.15;0.65;;;11.80;99.90;;;;;;4982440;28;20077;-74
2022/05/29 10:36:59;;;;;;;2.20;0.45;;;11.70;99.90;;;;;;4996609;28;20047;-74
2022/05/29 10:39:29;;;;;;;3.88;0.70;;;11.60;99.90;;;;;;4993954;28;20057;-72
2022/05/29 10:41:57;;;;;;;2.72;0.47;;;11.80;99.90;;;;;;4978513;28;20054;-73
2022/05/29 10:44:46;;;;;;;3.53;0.60;;;11.90;99.90;;;;;;4994362;28;20502;-74
2022/05/29 10:47:27;;;;;;;2.92;0.60;;;12.00;99.90;;;;;;4996535;28;20062;-73
2022/05/29 10:50:02;;;;;;;4.75;0.90;;;12.00;99.90;;;;;;4994285;28;20173;-74
2022/05/29 10:52:40;;;;;;;3.90;0.60;;;12.00;99.90;;;;;;4977918;28;20092;-73
2022/05/29 10:55:22;;;;;;;6.80;0.82;;;12.10;99.90;;;;;;4978764;28;20129;-74
2022/05/29 10:58:16;;;;;;;9.38;0.95;;;12.10;99.90;;;;;;4994470;28;20136;-73
2022/05/29 11:00:55;;;;;;;4.22;0.63;;;12.10;99.90;;;;;;4993390;28;20088;-73
2022/05/29 11:03:42;;;;;;;2.75;0.75;;;12.00;99.90;;;;;;4995140;28;20074;-73
2022/05/29 11:06:09;;;;;;;4.05;0.63;;;11.90;99.90;;;;;;4995388;28;20046;-73
2022/05/29 11:08:41;;;;;;;6.75;0.63;;;12.00;99.90;;;;;;4995168;28;20046;-73
2022/05/29 11:11:09;;;;;;;3.65;0.73;;;11.80;99.90;;;;;;4995448;28;20050;-73
2022/05/29 11:13:57;;;;;;;3.55;0.70;;;11.80;99.90;;;;;;4995459;28;20050;-73
2022/05/29 11:16:25;;;;;;;6.97;0.75;;;11.80;99.90;;;;;;4995562;28;20050;-73
2022/05/29 11:19:15;;;;;;;3.08;0.60;;;11.90;99.90;;;;;;4995182;28;20101;-78
2022/05/29 11:22:00;;;;;;;6.07;0.80;;;11.80;99.90;;;;;;4996341;28;20085;-73
2022/05/29 11:24:49;;;;;;;7.78;1.00;;;11.80;99.90;;;;;;4995491;28;20467;-73
2022/05/29 11:27:40;;;;;;;5.03;0.60;;;11.80;99.90;;;;;;4994152;28;20050;-74
2022/05/29 11:30:06;;;;;;;7.07;0.80;;;11.90;99.90;;;;;;4995621;28;20050;-73
2022/05/29 11:32:50;;;;;;;6.47;1.20;;;11.80;99.90;;;;;;4995396;28;20057;-73
2022/05/29 11:35:20;;;;;;;4.75;0.70;;;11.90;99.90;;;;;;4993984;28;20081;-73
2022/05/29 11:38:02;;;;;;;2.58;0.70;;;11.90;99.90;;;;;;4994059;28;20133;-74
2022/05/29 11:40:36;;;;;;;5.03;0.70;;;12.00;99.90;;;;;;4994862;28;20069;-74
2022/05/29 11:43:19;;;;;;;4.72;1.05;;;12.10;99.90;;;;;;4994164;28;20046;-74
2022/05/29 11:52:23;;;;;;;2.65;0.70;;;12.30;99.90;;;;;;4994768;28;20154;-73
2022/05/29 11:55:26;;;;;;;6.13;0.90;;;12.40;99.90;;;;;;4995289;28;20058;-73
2022/05/29 11:58:07;;;;;;;4.25;0.52;;;12.40;99.90;;;;;;5009652;28;20054;-73
2022/05/29 12:00:57;;;;;;;6.93;0.60;;;12.50;99.90;;;;;;4994719;28;20049;-74
2022/05/29 12:03:27;;;;;;;4.70;0.60;;;12.70;99.90;;;;;;4994496;28;20045;-72
2022/05/29 12:06:05;;;;;;;4.43;0.52;;;12.60;99.90;;;;;;4994588;28;20052;-72
2022/05/29 12:09:03;;;;;;;4.82;0.55;;;12.70;99.90;;;;;;4994500;28;20046;-73
2022/05/29 12:11:50;;;;;;;4.18;0.73;;;12.80;99.90;;;;;;4971536;28;20372;-74
2022/05/29 12:14:37;;;;;;;5.35;0.57;;;12.90;99.90;;;;;;4994443;28;20115;-74
2022/05/29 12:17:25;;;;;;;1.88;0.47;;;13.00;99.90;;;;;;4976743;28;20077;-74
2022/05/29 12:20:09;;;;;;;5.65;0.60;;;12.90;99.90;;;;;;4992793;28;20107;-74
2022/05/29 12:22:56;;;;;;;5.85;0.90;;;13.00;99.90;;;;;;4994423;28;20126;-76
2022/05/29 12:26:06;;;;;;;6.25;0.70;;;12.90;99.90;;;;;;4976838;28;20049;-73
2022/05/29 12:29:01;;;;;;;5.72;0.90;;;12.70;99.90;;;;;;4956607;28;20051;-73
2022/05/29 12:31:44;;;;;;;3.33;0.90;;;12.70;99.90;;;;;;4971749;28;20427;-71
2022/05/29 12:34:24;;;;;;;;;;;12.70;99.90;;;;;;4990474;28;20046;-72
2022/05/29 12:37:14;;;;;;;2.67;0.70;;;12.70;99.90;;;;;;4993347;28;19983;-71
2022/05/29 12:39:54;;;;;;;4.50;0.70;;;12.60;99.90;;;;;;4994681;28;20082;-71
2022/05/29 12:42:38;;;;;;;2.38;0.50;;;12.60;99.90;;;;;;4993212;28;20064;-70
2022/05/29 12:45:41;;;;;;;2.45;0.80;;;12.60;99.90;;;;;;4993737;28;20463;-71
2022/05/29 12:48:35;;;;;;;4.60;1.00;;;12.70;99.90;;;;;;4993844;28;20054;-71
2022/05/29 12:51:19;;;;;;;4.72;0.80;;;12.70;99.90;;;;;;4992762;28;20057;-71
2022/05/29 12:54:30;;;;;;;4.15;0.75;;;12.70;99.90;;;;;;4994523;28;20117;-72
2022/05/29 12:57:12;;;;;;;3.25;0.77;;;12.80;99.90;;;;;;4993994;28;20050;-71
2022/05/29 13:00:22;;;;;;;3.53;0.85;;;12.80;99.90;;;;;;4994214;28;20497;-72
2022/05/29 13:03:21;;;;;;;10.90;1.02;;;12.70;99.90;;;;;;4992622;28;20509;-71
2022/05/29 13:06:04;;;;;;;4.72;0.88;;;12.70;99.90;;;;;;4993998;28;20054;-74
2022/05/29 13:08:49;;;;;;;6.03;1.00;;;12.60;99.90;;;;;;4994572;28;20086;-72
2022/05/29 13:11:26;;;;;;;5.20;0.70;;;12.50;99.90;;;;;;4992920;28;20050;-72
2022/05/29 13:13:59;;;;;;;9.32;0.80;;;12.40;99.90;;;;;;4977386;28;20077;-73
2022/05/29 13:16:29;;;;;;;3.70;0.70;;;12.30;99.90;;;;;;4992278;28;20502;-75
2022/05/29 13:19:15;;;;;;;3.72;0.70;;;12.20;99.90;;;;;;4992833;28;20050;-72
2022/05/29 13:22:07;;;;;;;5.53;0.75;;;12.10;99.90;;;;;;4992976;28;20066;-74
2022/05/29 13:24:44;;;;;;;4.25;0.60;;;12.10;99.90;;;;;;4994217;28;20042;-73
2022/05/29 13:27:09;;;;;;;4.32;1.10;;;12.10;99.90;;;;;;4993759;28;20047;-72
2022/05/29 13:29:56;;;;;;;6.93;0.70;;;12.10;99.90;;;;;;4992953;28;20049;-74
2022/05/29 13:32:27;;;;;;;6.72;0.70;;;12.10;99.90;;;;;;4994325;28;20121;-72
2022/05/29 13:35:05;;;;;;;7.55;0.90;;;12.00;99.90;;;;;;4977192;28;20100;-72
2022/05/29 13:37:49;;;;;;;5.07;0.60;;;12.10;99.90;;;;;;4993550;28;20046;-72
2022/05/29 13:40:21;;;;;;;3.92;0.82;;;12.10;99.90;;;;;;4993194;28;20141;-72
2022/05/29 13:43:19;;;;;;;3.45;0.60;;;12.20;99.90;;;;;;4994165;28;20113;-73
2022/05/29 13:45:45;;;;;;;4.93;1.00;;;12.30;99.90;;;;;;4992475;28;20077;-73
2022/05/29 13:48:30;;;;;;;3.28;0.77;;;12.40;99.90;;;;;;4993944;28;20109;-75
2022/05/29 13:50:57;;;;;;;8.30;0.90;;;12.60;99.90;;;;;;4997888;28;20089;-72